Allens Point, New York
Current Conditions -  °F | °C
As of 8:53 PM on Monday 20 Oct 2014 (Local Time) from KPEO Reporting Station
Light Rain Light Rain  
Wind Chill: 51°   Ceiling: 5500
Heat Index: 51°   Visibility: 10mi
Dew Point: 43°   Wind: 7mph
Humidity: 74%   Direction: 170°S
Pressure: 29.87"   Gusts: NA
Location:  42.8228°N, 76.6558°W
Report Text: KPEO 210053Z AUTO 17006KT 10SM -RA BKN055 OVC075 11/06 A2987 RMK AO2 RAE15B49 SLP117 P0000 T01060061
Loading
Personal Weather Stations






























Interactive Weather Map New forecast layout! Learn more

10-Day Weather Forecast

Advertisements
Track Severe Weather on mobile